sensor_id;sensor_type;location;lat;lon;timestamp;temperature;humidity
16674;DHT22;8450;52.654;10.326;2022-09-03T06:08:47;13.10;99.90
16674;DHT22;8450;52.654;10.326;2022-09-03T06:11:13;13.20;99.90
16674;DHT22;8450;52.654;10.326;2022-09-03T06:13:39;13.20;99.90
16674;DHT22;8450;52.654;10.326;2022-09-03T06:16:06;13.30;99.90
16674;DHT22;8450;52.654;10.326;2022-09-03T06:18:31;13.30;99.90
16674;DHT22;8450;52.654;10.326;2022-09-03T06:21:02;13.30;99.90
16674;DHT22;8450;52.654;10.326;2022-09-03T06:23:28;13.40;99.90
16674;DHT22;8450;52.654;10.326;2022-09-03T06:28:24;13.40;99.90
16674;DHT22;8450;52.654;10.326;2022-09-03T06:30:51;13.40;99.90
16674;DHT22;8450;52.654;10.326;2022-09-03T06:33:17;13.50;99.90
16674;DHT22;8450;52.654;10.326;2022-09-03T06:35:43;13.50;99.90
16674;DHT22;8450;52.654;10.326;2022-09-03T06:38:09;13.50;99.90
16674;DHT22;8450;52.654;10.326;2022-09-03T06:40:37;13.60;99.90
16674;DHT22;8450;52.654;10.326;2022-09-03T06:43:02;13.60;99.90
16674;DHT22;8450;52.654;10.326;2022-09-03T06:45:29;13.70;99.90
16674;DHT22;8450;52.654;10.326;2022-09-03T06:47:55;13.70;99.90
16674;DHT22;8450;52.654;10.326;2022-09-03T06:50:21;13.80;99.90
16674;DHT22;8450;52.654;10.326;2022-09-03T06:52:51;13.80;99.90
16674;DHT22;8450;52.654;10.326;2022-09-03T06:55:20;13.90;99.90
16674;DHT22;8450;52.654;10.326;2022-09-03T06:57:46;14.00;99.90
16674;DHT22;8450;52.654;10.326;2022-09-03T07:00:12;14.10;99.90
16674;DHT22;8450;52.654;10.326;2022-09-03T07:02:38;14.20;99.90
16674;DHT22;8450;52.654;10.326;2022-09-03T07:05:09;14.40;99.90
16674;DHT22;8450;52.654;10.326;2022-09-03T07:07:35;14.60;99.90
16674;DHT22;8450;52.654;10.326;2022-09-03T07:10:01;14.70;99.90
16674;DHT22;8450;52.654;10.326;2022-09-03T07:12:27;14.90;99.90
16674;DHT22;8450;52.654;10.326;2022-09-03T07:14:52;15.20;99.90
16674;DHT22;8450;52.654;10.326;2022-09-03T07:17:18;15.40;99.90
16674;DHT22;8450;52.654;10.326;2022-09-03T07:19:43;15.60;99.90
16674;DHT22;8450;52.654;10.326;2022-09-03T07:22:09;15.80;99.90
16674;DHT22;8450;52.654;10.326;2022-09-03T07:24:35;16.00;99.90
16674;DHT22;8450;52.654;10.326;2022-09-03T07:27:02;16.10;99.90
16674;DHT22;8450;52.654;10.326;2022-09-03T07:29:29;16.30;99.90
16674;DHT22;8450;52.654;10.326;2022-09-03T07:31:55;16.50;99.90
16674;DHT22;8450;52.654;10.326;2022-09-03T07:34:21;16.60;99.90
16674;DHT22;8450;52.654;10.326;2022-09-03T07:36:51;16.70;99.90
16674;DHT22;8450;52.654;10.326;2022-09-03T07:39:18;16.90;99.90
16674;DHT22;8450;52.654;10.326;2022-09-03T07:41:44;17.10;99.90
16674;DHT22;8450;52.654;10.326;2022-09-03T07:44:15;17.20;99.90
16674;DHT22;8450;52.654;10.326;2022-09-03T07:46:43;17.50;99.90
16674;DHT22;8450;52.654;10.326;2022-09-03T07:49:10;17.60;99.90
16674;DHT22;8450;52.654;10.326;2022-09-03T07:51:36;17.70;99.90
16674;DHT22;8450;52.654;10.326;2022-09-03T07:54:05;17.90;99.90
16674;DHT22;8450;52.654;10.326;2022-09-03T07:56:32;18.00;99.90
16674;DHT22;8450;52.654;10.326;2022-09-03T07:58:59;18.20;99.90
16674;DHT22;8450;52.654;10.326;2022-09-03T08:01:27;18.40;99.90
16674;DHT22;8450;52.654;10.326;2022-09-03T08:03:54;18.50;99.90
16674;DHT22;8450;52.654;10.326;2022-09-03T08:06:25;18.50;99.90
16674;DHT22;8450;52.654;10.326;2022-09-03T08:08:55;18.60;99.90
16674;DHT22;8450;52.654;10.326;2022-09-03T08:11:22;18.80;99.90
16674;DHT22;8450;52.654;10.326;2022-09-03T08:16:27;19.20;99.90
16674;DHT22;8450;52.654;10.326;2022-09-03T08:18:53;19.50;99.90
16674;DHT22;8450;52.654;10.326;2022-09-03T08:21:19;19.60;99.90
16674;DHT22;8450;52.654;10.326;2022-09-03T08:23:47;19.80;99.90
16674;DHT22;8450;52.654;10.326;2022-09-03T08:26:14;19.90;99.90
16674;DHT22;8450;52.654;10.326;2022-09-03T08:28:41;20.10;99.90
16674;DHT22;8450;52.654;10.326;2022-09-03T08:31:26;20.30;99.90
16674;DHT22;8450;52.654;10.326;2022-09-03T08:33:53;20.30;99.90
16674;DHT22;8450;52.654;10.326;2022-09-03T08:36:25;20.40;99.90
16674;DHT22;8450;52.654;10.326;2022-09-03T08:38:52;20.50;99.90
16674;DHT22;8450;52.654;10.326;2022-09-03T08:47:00;20.80;99.90
16674;DHT22;8450;52.654;10.326;2022-09-03T08:52:01;21.30;99.90
16674;DHT22;8450;52.654;10.326;2022-09-03T08:54:29;21.20;99.90
16674;DHT22;8450;52.654;10.326;2022-09-03T08:57:00;21.30;99.90
16674;DHT22;8450;52.654;10.326;2022-09-03T08:59:26;21.50;99.90
16674;DHT22;8450;52.654;10.326;2022-09-03T09:02:03;21.60;99.90
16674;DHT22;8450;52.654;10.326;2022-09-03T09:04:50;21.70;99.90
16674;DHT22;8450;52.654;10.326;2022-09-03T09:07:41;21.90;99.90
16674;DHT22;8450;52.654;10.326;2022-09-03T09:18:55;22.20;99.90
16674;DHT22;8450;52.654;10.326;2022-09-03T09:21:27;22.50;99.90
16674;DHT22;8450;52.654;10.326;2022-09-03T09:24:03;22.60;99.90
16674;DHT22;8450;52.654;10.326;2022-09-03T09:26:32;22.70;99.90
16674;DHT22;8450;52.654;10.326;2022-09-03T09:29:04;22.90;99.90
16674;DHT22;8450;52.654;10.326;2022-09-03T09:31:31;23.00;99.90
16674;DHT22;8450;52.654;10.326;2022-09-03T09:34:06;23.10;99.90
16674;DHT22;8450;52.654;10.326;2022-09-03T09:36:40;23.10;99.90
16674;DHT22;8450;52.654;10.326;2022-09-03T09:39:08;23.20;99.90
16674;DHT22;8450;52.654;10.326;2022-09-03T09:41:34;23.30;99.90
16674;DHT22;8450;52.654;10.326;2022-09-03T09:44:01;23.50;99.90
16674;DHT22;8450;52.654;10.326;2022-09-03T09:46:35;23.60;99.90
16674;DHT22;8450;52.654;10.326;2022-09-03T09:49:01;23.60;99.90
16674;DHT22;8450;52.654;10.326;2022-09-03T09:51:29;23.70;99.90
16674;DHT22;8450;52.654;10.326;2022-09-03T09:54:15;23.70;99.90
16674;DHT22;8450;52.654;10.326;2022-09-03T09:56:45;23.80;98.30
16674;DHT22;8450;52.654;10.326;2022-09-03T09:59:12;23.90;99.90
16674;DHT22;8450;52.654;10.326;2022-09-03T10:01:40;24.00;99.80
16674;DHT22;8450;52.654;10.326;2022-09-03T10:04:12;24.00;99.70
16674;DHT22;8450;52.654;10.326;2022-09-03T10:06:39;24.20;98.70
16674;DHT22;8450;52.654;10.326;2022-09-03T10:09:27;24.20;99.00
16674;DHT22;8450;52.654;10.326;2022-09-03T10:12:18;24.30;99.00
16674;DHT22;8450;52.654;10.326;2022-09-03T10:17:47;24.40;98.40
16674;DHT22;8450;52.654;10.326;2022-09-03T10:20:30;24.40;98.80
16674;DHT22;8450;52.654;10.326;2022-09-03T10:28:23;24.90;97.70
16674;DHT22;8450;52.654;10.326;2022-09-03T10:33:21;25.10;97.20
16674;DHT22;8450;52.654;10.326;2022-09-03T10:35:55;25.00;98.00
16674;DHT22;8450;52.654;10.326;2022-09-03T10:38:29;25.00;97.90
16674;DHT22;8450;52.654;10.326;2022-09-03T10:41:15;25.10;97.10
16674;DHT22;8450;52.654;10.326;2022-09-03T10:44:14;25.30;97.70
16674;DHT22;8450;52.654;10.326;2022-09-03T10:55:17;25.80;96.20
16674;DHT22;8450;52.654;10.326;2022-09-03T10:57:48;26.00;96.70
16674;DHT22;8450;52.654;10.326;2022-09-03T11:00:16;26.00;96.80
16674;DHT22;8450;52.654;10.326;2022-09-03T11:03:06;26.20;96.70
16674;DHT22;8450;52.654;10.326;2022-09-03T11:05:47;26.30;96.70
16674;DHT22;8450;52.654;10.326;2022-09-03T11:08:24;26.30;96.00
16674;DHT22;8450;52.654;10.326;2022-09-03T11:10:56;26.40;97.10
16674;DHT22;8450;52.654;10.326;2022-09-03T11:13:32;26.60;96.40
16674;DHT22;8450;52.654;10.326;2022-09-03T11:16:03;26.60;97.00
16674;DHT22;8450;52.654;10.326;2022-09-03T11:18:36;26.70;93.50
16674;DHT22;8450;52.654;10.326;2022-09-03T11:21:08;26.70;96.10
16674;DHT22;8450;52.654;10.326;2022-09-03T11:23:40;26.70;95.60
16674;DHT22;8450;52.654;10.326;2022-09-03T11:26:10;26.90;95.70
16674;DHT22;8450;52.654;10.326;2022-09-03T11:31:58;27.10;95.80
16674;DHT22;8450;52.654;10.326;2022-09-03T11:36:51;27.20;94.00
16674;DHT22;8450;52.654;10.326;2022-09-03T11:39:31;27.10;94.00
16674;DHT22;8450;52.654;10.326;2022-09-03T11:42:03;27.20;93.80
16674;DHT22;8450;52.654;10.326;2022-09-03T11:44:36;27.20;93.70
16674;DHT22;8450;52.654;10.326;2022-09-03T11:47:13;27.00;94.80
16674;DHT22;8450;52.654;10.326;2022-09-03T11:49:44;27.00;94.40
16674;DHT22;8450;52.654;10.326;2022-09-03T11:52:11;27.00;94.30
16674;DHT22;8450;52.654;10.326;2022-09-03T11:54:44;26.90;92.40
16674;DHT22;8450;52.654;10.326;2022-09-03T11:57:13;26.80;94.40
16674;DHT22;8450;52.654;10.326;2022-09-03T11:59:42;26.80;94.70
16674;DHT22;8450;52.654;10.326;2022-09-03T12:10:50;27.10;93.10
16674;DHT22;8450;52.654;10.326;2022-09-03T12:13:25;27.30;93.30
16674;DHT22;8450;52.654;10.326;2022-09-03T12:16:11;27.30;93.60
16674;DHT22;8450;52.654;10.326;2022-09-03T12:18:40;27.30;94.40
16674;DHT22;8450;52.654;10.326;2022-09-03T12:21:08;27.40;92.80
16674;DHT22;8450;52.654;10.326;2022-09-03T12:23:43;27.50;94.00
16674;DHT22;8450;52.654;10.326;2022-09-03T12:26:12;27.50;93.10
16674;DHT22;8450;52.654;10.326;2022-09-03T12:28:40;27.70;92.10
16674;DHT22;8450;52.654;10.326;2022-09-03T12:31:19;27.70;93.60
16674;DHT22;8450;52.654;10.326;2022-09-03T12:33:58;27.90;92.30
16674;DHT22;8450;52.654;10.326;2022-09-03T12:36:26;28.00;91.50
16674;DHT22;8450;52.654;10.326;2022-09-03T12:39:11;28.00;93.20
16674;DHT22;8450;52.654;10.326;2022-09-03T12:41:37;28.10;92.70
16674;DHT22;8450;52.654;10.326;2022-09-03T12:44:03;27.90;90.50
16674;DHT22;8450;52.654;10.326;2022-09-03T12:46:31;28.00;92.30
16674;DHT22;8450;52.654;10.326;2022-09-03T12:49:03;28.10;91.70
16674;DHT22;8450;52.654;10.326;2022-09-03T12:51:33;28.00;92.00
16674;DHT22;8450;52.654;10.326;2022-09-03T12:54:02;27.80;92.50
16674;DHT22;8450;52.654;10.326;2022-09-03T12:56:28;27.80;93.00
16674;DHT22;8450;52.654;10.326;2022-09-03T12:59:00;27.80;93.10
16674;DHT22;8450;52.654;10.326;2022-09-03T13:01:32;27.80;92.20
16674;DHT22;8450;52.654;10.326;2022-09-03T13:04:20;27.90;92.70
16674;DHT22;8450;52.654;10.326;2022-09-03T13:09:24;28.00;92.50
16674;DHT22;8450;52.654;10.326;2022-09-03T13:11:51;28.20;93.10
16674;DHT22;8450;52.654;10.326;2022-09-03T13:14:19;28.30;91.50
16674;DHT22;8450;52.654;10.326;2022-09-03T13:22:20;28.20;92.00
16674;DHT22;8450;52.654;10.326;2022-09-03T13:25:14;28.20;91.90
16674;DHT22;8450;52.654;10.326;2022-09-03T13:27:51;28.00;89.70
16674;DHT22;8450;52.654;10.326;2022-09-03T13:30:21;27.70;90.80
16674;DHT22;8450;52.654;10.326;2022-09-03T13:32:58;27.90;90.70
16674;DHT22;8450;52.654;10.326;2022-09-03T13:38:59;27.90;91.30
16674;DHT22;8450;52.654;10.326;2022-09-03T13:41:49;27.80;91.40
16674;DHT22;8450;52.654;10.326;2022-09-03T13:44:46;27.80;91.60
16674;DHT22;8450;52.654;10.326;2022-09-03T13:47:43;27.80;92.00
16674;DHT22;8450;52.654;10.326;2022-09-03T13:50:43;27.80;90.70
16674;DHT22;8450;52.654;10.326;2022-09-03T13:53:35;27.80;90.10
16674;DHT22;8450;52.654;10.326;2022-09-03T14:02:21;27.80;90.80
16674;DHT22;8450;52.654;10.326;2022-09-03T14:07:52;27.80;91.50
16674;DHT22;8450;52.654;10.326;2022-09-03T14:13:35;27.80;89.50
16674;DHT22;8450;52.654;10.326;2022-09-03T14:16:23;27.70;90.60
16674;DHT22;8450;52.654;10.326;2022-09-03T14:19:02;27.70;91.50
16674;DHT22;8450;52.654;10.326;2022-09-03T14:21:38;27.60;89.80
16674;DHT22;8450;52.654;10.326;2022-09-03T14:24:20;27.60;89.60
16674;DHT22;8450;52.654;10.326;2022-09-03T14:26:57;27.60;88.10
16674;DHT22;8450;52.654;10.326;2022-09-03T14:29:27;27.60;90.70
16674;DHT22;8450;52.654;10.326;2022-09-03T14:32:01;27.60;90.80
16674;DHT22;8450;52.654;10.326;2022-09-03T14:34:51;27.40;90.20
16674;DHT22;8450;52.654;10.326;2022-09-03T14:37:49;27.40;90.10
16674;DHT22;8450;52.654;10.326;2022-09-03T14:43:27;27.20;89.50
16674;DHT22;8450;52.654;10.326;2022-09-03T15:06:13;27.00;91.20
16674;DHT22;8450;52.654;10.326;2022-09-03T15:09:14;27.10;91.00
16674;DHT22;8450;52.654;10.326;2022-09-03T15:11:53;27.00;89.90
16674;DHT22;8450;52.654;10.326;2022-09-03T15:20:17;26.70;90.90
16674;DHT22;8450;52.654;10.326;2022-09-03T15:25:57;26.50;89.50
16674;DHT22;8450;52.654;10.326;2022-09-03T15:31:47;26.50;91.50
16674;DHT22;8450;52.654;10.326;2022-09-03T15:34:32;26.50;90.00
16674;DHT22;8450;52.654;10.326;2022-09-03T15:37:00;26.40;90.20
16674;DHT22;8450;52.654;10.326;2022-09-03T15:39:34;26.20;88.90
16674;DHT22;8450;52.654;10.326;2022-09-03T15:42:07;26.00;90.20
16674;DHT22;8450;52.654;10.326;2022-09-03T15:44:40;25.90;88.90
16674;DHT22;8450;52.654;10.326;2022-09-03T15:47:12;26.00;91.00
16674;DHT22;8450;52.654;10.326;2022-09-03T15:49:53;25.90;90.10
16674;DHT22;8450;52.654;10.326;2022-09-03T15:52:40;25.80;90.00
16674;DHT22;8450;52.654;10.326;2022-09-03T15:58:04;25.70;90.80
16674;DHT22;8450;52.654;10.326;2022-09-03T16:00:49;25.70;90.10
16674;DHT22;8450;52.654;10.326;2022-09-03T16:03:21;25.60;90.70
16674;DHT22;8450;52.654;10.326;2022-09-03T16:05:56;25.60;90.80
16674;DHT22;8450;52.654;10.326;2022-09-03T16:08:42;25.60;90.70
16674;DHT22;8450;52.654;10.326;2022-09-03T16:11:38;25.50;90.50
16674;DHT22;8450;52.654;10.326;2022-09-03T16:14:09;25.40;90.80
16674;DHT22;8450;52.654;10.326;2022-09-03T16:16:58;25.40;90.70
16674;DHT22;8450;52.654;10.326;2022-09-03T16:19:40;25.40;91.30
16674;DHT22;8450;52.654;10.326;2022-09-03T16:22:14;25.30;91.20
16674;DHT22;8450;52.654;10.326;2022-09-03T16:25:02;25.30;90.80
16674;DHT22;8450;52.654;10.326;2022-09-03T16:27:35;25.00;90.50
16674;DHT22;8450;52.654;10.326;2022-09-03T16:38:37;24.70;90.80
16674;DHT22;8450;52.654;10.326;2022-09-03T16:47:04;24.40;91.00
16674;DHT22;8450;52.654;10.326;2022-09-03T16:49:45;24.30;91.00
16674;DHT22;8450;52.654;10.326;2022-09-03T16:55:21;24.20;91.00
16674;DHT22;8450;52.654;10.326;2022-09-03T16:57:59;24.00;90.80
16674;DHT22;8450;52.654;10.326;2022-09-03T17:03:38;23.80;91.10
16674;DHT22;8450;52.654;10.326;2022-09-03T17:06:07;23.70;91.20
16674;DHT22;8450;52.654;10.326;2022-09-03T17:08:53;23.60;91.60
16674;DHT22;8450;52.654;10.326;2022-09-03T17:11:56;23.50;91.40
16674;DHT22;8450;52.654;10.326;2022-09-03T17:15:02;23.30;91.50
16674;DHT22;8450;52.654;10.326;2022-09-03T17:23:25;23.10;91.90
